createdAt,value
2023-02-01T00:02:53.864Z,97833.53
2023-02-01T00:06:00.014Z,97811.22
2023-02-01T00:09:03.480Z,97819.03
2023-02-01T00:12:06.313Z,97841.56
2023-02-01T00:15:09.699Z,97806.63
2023-02-01T00:18:12.067Z,97819.78
2023-02-01T00:21:17.720Z,97810.81
2023-02-01T00:24:20.151Z,97826.47
2023-02-01T00:27:22.747Z,97858.03
2023-02-01T00:30:25.157Z,97812.13
2023-02-01T00:33:28.777Z,97804.47
2023-02-01T00:36:31.149Z,97818.38
2023-02-01T00:39:33.402Z,97790.41
2023-02-01T00:42:35.976Z,97829.31
2023-02-01T00:45:38.093Z,97828.81
2023-02-01T00:48:41.066Z,97832.66
2023-02-01T00:51:43.080Z,97830.06
2023-02-01T00:54:45.091Z,97814.31
2023-02-01T00:57:47.467Z,97799.50
2023-02-01T01:00:50.785Z,97760.06
2023-02-01T01:03:56.670Z,97808.03
2023-02-01T01:06:59.077Z,97816.75
2023-02-01T01:10:01.944Z,97817.78
2023-02-01T01:13:04.056Z,97822.47
2023-02-01T01:16:08.369Z,97796.78
2023-02-01T01:19:10.667Z,97810.03
2023-02-01T01:22:12.674Z,97833.34
2023-02-01T01:25:15.278Z,97836.59
2023-02-01T01:28:18.568Z,97825.88
2023-02-01T01:31:22.163Z,97868.22
2023-02-01T01:34:24.636Z,97819.59
2023-02-01T01:37:26.837Z,97801.53
2023-02-01T01:40:30.219Z,97812.28
2023-02-01T01:44:06.337Z,97819.75
2023-02-01T01:47:09.775Z,97815.03
2023-02-01T01:50:18.269Z,97821.78
2023-02-01T01:53:26.214Z,97832.88
2023-02-01T01:56:30.707Z,97823.06
2023-02-01T01:59:36.973Z,97832.41
2023-02-01T02:02:42.192Z,97843.16
2023-02-01T02:05:45.249Z,97835.06
2023-02-01T02:08:47.596Z,97838.34
2023-02-01T02:11:49.741Z,97788.00
2023-02-01T02:14:53.421Z,97841.16
2023-02-01T02:18:17.382Z,97838.97
2023-02-01T02:21:31.852Z,97842.66
2023-02-01T02:25:07.602Z,97826.59
2023-02-01T02:28:41.471Z,97815.22
2023-02-01T02:32:14.857Z,97827.41
2023-02-01T02:35:54.632Z,97819.63
2023-02-01T02:39:24.459Z,97819.50
2023-02-01T02:43:15.979Z,97834.63
2023-02-01T02:46:52.925Z,97837.88
2023-02-01T02:50:31.327Z,97832.56
2023-02-01T02:54:03.762Z,97832.56
2023-02-01T02:57:28.972Z,97837.81
2023-02-01T03:00:54.340Z,97826.38
2023-02-01T03:04:15.705Z,97830.34
2023-02-01T03:07:49.008Z,97825.22
2023-02-01T03:11:06.621Z,97827.59
2023-02-01T03:14:09.908Z,97817.66
2023-02-01T03:17:20.437Z,97820.69
2023-02-01T03:20:25.186Z,97822.59
2023-02-01T03:23:32.156Z,97830.69
2023-02-01T03:26:40.014Z,97810.78
2023-02-01T03:30:07.237Z,97847.91
2023-02-01T03:33:23.015Z,97835.59
2023-02-01T03:36:32.546Z,97841.09
2023-02-01T03:39:59.464Z,97845.97
2023-02-01T03:43:06.370Z,97831.16
2023-02-01T03:46:13.813Z,97841.13
2023-02-01T03:49:24.718Z,97835.28
2023-02-01T03:52:33.673Z,97828.41
2023-02-01T03:55:39.584Z,97837.34
2023-02-01T03:58:41.758Z,97829.72
2023-02-01T04:01:44.094Z,97843.47
2023-02-01T04:04:46.773Z,97855.03
2023-02-01T04:07:51.781Z,97824.88
2023-02-01T04:10:53.833Z,97837.25
2023-02-01T04:13:56.222Z,97839.69
2023-02-01T04:16:58.572Z,97842.44
2023-02-01T04:20:00.810Z,97844.94
2023-02-01T04:23:03.924Z,97836.59
2023-02-01T04:26:06.979Z,97826.94
2023-02-01T04:29:11.379Z,97822.72
2023-02-01T04:32:13.485Z,97818.69
2023-02-01T04:35:15.531Z,97822.94
2023-02-01T04:38:17.947Z,97818.47
2023-02-01T04:41:22.197Z,97819.72
2023-02-01T04:44:24.887Z,97806.97
2023-02-01T04:47:28.450Z,97781.19
2023-02-01T04:50:31.066Z,97806.63
2023-02-01T04:53:33.817Z,97799.50
2023-02-01T04:56:36.233Z,97808.22
2023-02-01T04:59:39.034Z,97812.09
2023-02-01T05:02:41.444Z,97815.69
2023-02-01T05:05:43.499Z,97811.47
2023-02-01T05:08:46.062Z,97810.44
2023-02-01T05:12:06.743Z,97819.78
2023-02-01T05:15:09.100Z,97811.25
2023-02-01T05:18:12.041Z,97802.16
2023-02-01T05:21:14.275Z,97783.41
2023-02-01T05:24:21.018Z,97813.94
2023-02-01T05:27:23.808Z,97814.38
2023-02-01T05:30:26.033Z,97809.69
2023-02-01T05:33:28.088Z,97826.09
2023-02-01T05:36:30.182Z,97816.19
2023-02-01T05:39:32.403Z,97815.78
2023-02-01T05:42:34.852Z,97815.19
2023-02-01T05:45:36.930Z,97805.06
2023-02-01T05:48:39.473Z,97816.63
2023-02-01T05:51:41.550Z,97772.56
2023-02-01T05:54:43.595Z,97800.78
2023-02-01T05:57:45.849Z,97772.56
2023-02-01T06:00:47.895Z,97788.16
2023-02-01T06:03:50.124Z,97792.03
2023-02-01T06:06:52.227Z,97795.09
2023-02-01T06:09:54.246Z,97793.06
2023-02-01T06:12:56.339Z,97786.78
2023-02-01T06:15:58.434Z,97797.09
2023-02-01T06:19:01.558Z,97804.22
2023-02-01T06:22:07.957Z,97798.72
2023-02-01T06:25:11.900Z,97818.03
2023-02-01T06:28:14.324Z,97841.13
2023-02-01T06:31:16.553Z,97825.53
2023-02-01T06:34:22.040Z,97809.91
2023-02-01T06:37:26.301Z,97819.03
2023-02-01T06:40:28.331Z,97806.31
2023-02-01T06:43:31.185Z,97803.66
2023-02-01T06:46:33.514Z,97803.44
2023-02-01T06:49:35.515Z,97810.97
2023-02-01T06:52:37.850Z,97826.16
2023-02-01T06:55:39.941Z,97810.59
2023-02-01T06:58:42.018Z,97823.75
2023-02-01T07:01:44.332Z,97808.50
2023-02-01T07:04:46.438Z,97785.00
2023-02-01T07:07:48.706Z,97768.09
2023-02-01T07:10:50.790Z,97788.81
2023-02-01T07:13:53.651Z,97797.97
2023-02-01T07:16:55.706Z,97814.22
2023-02-01T07:19:59.851Z,97812.41
2023-02-01T07:23:02.097Z,97800.06
2023-02-01T07:26:06.691Z,97811.41
2023-02-01T07:29:08.901Z,97817.66
2023-02-01T07:32:11.365Z,97830.25
2023-02-01T07:35:15.252Z,97817.13
2023-02-01T07:38:18.533Z,97824.22
2023-02-01T07:41:20.524Z,97829.06
2023-02-01T07:44:24.385Z,97829.72
2023-02-01T07:47:26.657Z,97812.44
2023-02-01T07:50:28.827Z,97815.75
2023-02-01T07:53:32.660Z,97815.91
2023-02-01T07:56:34.883Z,97818.78
2023-02-01T07:59:36.982Z,97791.97
2023-02-01T08:02:39.021Z,97812.69
2023-02-01T08:05:41.168Z,97798.47
2023-02-01T08:08:46.286Z,97776.75
2023-02-01T08:11:49.040Z,97786.31
2023-02-01T08:14:51.155Z,97779.41
2023-02-01T08:17:53.327Z,97764.16
2023-02-01T08:20:55.621Z,97762.97
2023-02-01T08:23:58.879Z,97758.25
2023-02-01T08:27:03.542Z,97720.09
2023-02-01T08:30:08.467Z,97739.78
2023-02-01T08:33:11.257Z,97751.34
2023-02-01T08:36:13.663Z,97733.28
2023-02-01T08:39:16.140Z,97731.84
2023-02-01T08:42:37.828Z,97739.56
2023-02-01T08:45:41.278Z,97716.75
2023-02-01T08:48:43.476Z,97698.91
2023-02-01T08:51:45.502Z,97726.06
2023-02-01T08:54:47.656Z,97704.59
2023-02-01T08:57:49.997Z,97739.44
2023-02-01T09:00:52.229Z,97735.19
2023-02-01T09:03:54.285Z,97737.03
2023-02-01T09:06:59.060Z,97742.75
2023-02-01T09:10:02.192Z,97738.63
2023-02-01T09:13:04.453Z,97734.63
2023-02-01T09:16:06.690Z,97745.78
2023-02-01T09:19:24.762Z,97733.16
2023-02-01T09:22:27.354Z,97738.63
2023-02-01T09:25:29.540Z,97727.31
2023-02-01T09:28:32.251Z,97733.78
2023-02-01T09:31:34.578Z,97737.47
2023-02-01T09:34:36.835Z,97738.88
2023-02-01T09:37:39.371Z,97724.72
2023-02-01T09:40:47.241Z,97720.44
2023-02-01T09:43:52.529Z,97726.34
2023-02-01T09:47:00.769Z,97719.44
2023-02-01T09:50:15.736Z,97706.03
2023-02-01T09:53:38.407Z,97712.72
2023-02-01T09:56:42.832Z,97703.41
2023-02-01T09:59:50.723Z,97708.28
2023-02-01T10:02:56.489Z,97701.41
2023-02-01T10:06:29.441Z,97696.09
2023-02-01T10:09:41.308Z,97699.56
2023-02-01T10:12:52.948Z,97684.28
2023-02-01T10:16:16.550Z,97672.88
2023-02-01T10:19:40.615Z,97660.47
2023-02-01T10:23:15.992Z,97673.28
2023-02-01T10:26:24.203Z,97655.94
2023-02-01T10:29:32.255Z,97655.22
2023-02-01T10:32:36.034Z,97663.84
2023-02-01T10:35:39.874Z,97651.41
2023-02-01T10:38:42.067Z,97650.44
2023-02-01T10:41:44.282Z,97634.03
2023-02-01T10:44:49.100Z,97647.28
2023-02-01T10:47:53.541Z,97656.38
2023-02-01T10:51:07.202Z,97647.34
2023-02-01T10:54:21.742Z,97662.25
2023-02-01T10:57:29.483Z,97672.97
2023-02-01T11:00:44.461Z,97664.56
2023-02-01T11:03:53.829Z,97671.13
2023-02-01T11:07:17.857Z,97655.78
2023-02-01T11:10:41.635Z,97656.44
2023-02-01T11:13:44.185Z,97658.63
2023-02-01T11:16:53.626Z,97670.38
2023-02-01T11:20:04.601Z,97679.56
2023-02-01T11:23:12.903Z,97659.88
2023-02-01T11:26:20.963Z,97669.03
2023-02-01T11:29:30.905Z,97662.16
2023-02-01T11:32:33.134Z,97657.94
2023-02-01T11:35:41.156Z,97631.38
2023-02-01T11:38:53.290Z,97659.59
2023-02-01T11:42:13.962Z,97660.41
2023-02-01T11:45:31.065Z,97645.97
2023-02-01T11:48:35.064Z,97646.19
2023-02-01T11:51:37.230Z,97659.94
2023-02-01T11:55:08.467Z,97667.31
2023-02-01T11:58:11.046Z,97667.94
2023-02-01T12:01:48.515Z,97663.06
2023-02-01T12:05:12.259Z,97664.06
2023-02-01T12:08:36.177Z,97683.56
2023-02-01T12:12:00.076Z,97661.19
2023-02-01T12:15:30.413Z,97664.84
2023-02-01T12:18:49.647Z,97667.09
2023-02-01T12:22:03.807Z,97689.25
2023-02-01T12:25:40.959Z,97685.97
2023-02-01T12:29:11.069Z,97680.31
2023-02-01T12:32:22.127Z,97684.59
2023-02-01T12:35:56.350Z,97685.34
2023-02-01T12:39:12.704Z,97697.94
2023-02-01T12:42:30.476Z,97678.00
2023-02-01T12:45:43.145Z,97666.22
2023-02-01T12:49:00.552Z,97684.34
2023-02-01T12:52:09.218Z,97678.84
2023-02-01T12:55:26.168Z,97676.22
2023-02-01T12:58:53.731Z,97663.69
2023-02-01T13:02:02.770Z,97654.31
2023-02-01T13:05:14.312Z,97660.41
2023-02-01T13:08:23.899Z,97660.59
2023-02-01T13:11:40.809Z,97637.81
2023-02-01T13:14:49.090Z,97637.59
2023-02-01T13:17:54.845Z,97628.69
2023-02-01T13:20:59.932Z,97629.47
2023-02-01T13:24:03.642Z,97621.94
2023-02-01T13:27:06.691Z,97628.03
2023-02-01T13:30:21.240Z,97618.91
2023-02-01T13:34:04.380Z,97608.31
2023-02-01T13:37:16.004Z,97591.28
2023-02-01T13:40:43.708Z,97599.84
2023-02-01T13:43:51.892Z,97603.13
2023-02-01T13:47:03.682Z,97586.50
2023-02-01T13:50:35.301Z,97591.75
2023-02-01T13:53:39.056Z,97621.41
2023-02-01T13:56:43.561Z,97585.47
2023-02-01T13:59:45.560Z,97594.44
2023-02-01T14:02:50.772Z,97595.44
2023-02-01T14:05:52.824Z,97602.75
2023-02-01T14:09:25.821Z,97623.88
2023-02-01T14:12:50.495Z,97623.69
2023-02-01T14:16:04.914Z,97598.31
2023-02-01T14:19:30.639Z,97632.41
2023-02-01T14:22:35.816Z,97607.72
2023-02-01T14:25:39.053Z,97604.03
2023-02-01T14:28:55.532Z,97599.38
2023-02-01T14:32:21.027Z,97602.63
2023-02-01T14:35:27.282Z,97608.31
2023-02-01T14:38:32.575Z,97620.69
2023-02-01T14:41:36.090Z,97622.50
2023-02-01T14:44:38.827Z,97618.06
2023-02-01T14:47:40.906Z,97625.13
2023-02-01T14:50:46.068Z,97598.56
2023-02-01T14:53:48.951Z,97637.53
2023-02-01T14:56:52.449Z,97642.59
2023-02-01T15:00:29.509Z,97646.81
2023-02-01T15:03:38.316Z,97648.03
2023-02-01T15:06:49.987Z,97662.41
2023-02-01T15:09:53.700Z,97665.03
2023-02-01T15:12:55.877Z,97683.50
2023-02-01T15:16:13.334Z,97672.13
2023-02-01T15:19:15.774Z,97670.31
2023-02-01T15:22:20.407Z,97668.53
2023-02-01T15:25:26.855Z,97665.88
2023-02-01T15:28:29.179Z,97664.44
2023-02-01T15:31:44.315Z,97677.06
2023-02-01T15:34:49.242Z,97674.63
2023-02-01T15:37:52.938Z,97666.31
2023-02-01T15:41:11.480Z,97665.50
2023-02-01T15:44:44.160Z,97656.78
2023-02-01T15:47:49.891Z,97675.84
2023-02-01T15:50:53.568Z,97684.97
2023-02-01T15:54:09.289Z,97683.34
2023-02-01T15:57:11.998Z,97682.13
2023-02-01T16:00:41.254Z,97691.66
2023-02-01T16:03:49.674Z,97700.81
2023-02-01T16:07:02.202Z,97697.75
2023-02-01T16:10:28.124Z,97704.88
2023-02-01T16:13:30.127Z,97699.56
2023-02-01T16:16:32.520Z,97706.09
2023-02-01T16:19:34.925Z,97717.84
2023-02-01T16:22:37.101Z,97716.47
2023-02-01T16:25:40.371Z,97711.97
2023-02-01T16:28:42.975Z,97701.44
2023-02-01T16:31:46.208Z,97714.81
2023-02-01T16:34:49.320Z,97716.03
2023-02-01T16:37:52.083Z,97700.22
2023-02-01T16:40:54.742Z,97711.38
2023-02-01T16:43:58.305Z,97712.59
2023-02-01T16:47:00.503Z,97680.53
2023-02-01T16:50:08.379Z,97700.84
2023-02-01T16:53:18.424Z,97684.00
2023-02-01T16:56:30.975Z,97715.66
2023-02-01T16:59:33.636Z,97704.88
2023-02-01T17:02:36.266Z,97685.00
2023-02-01T17:05:38.556Z,97682.97
2023-02-01T17:08:45.753Z,97683.78
2023-02-01T17:11:48.046Z,97714.81
2023-02-01T17:14:51.704Z,97692.50
2023-02-01T17:18:01.226Z,97715.03
2023-02-01T17:21:06.027Z,97715.22
2023-02-01T17:24:10.900Z,97728.00
2023-02-01T17:27:14.438Z,97717.84
2023-02-01T17:30:17.217Z,97644.38
2023-02-01T17:33:35.762Z,97694.91
2023-02-01T17:36:45.424Z,97703.03
2023-02-01T17:39:58.649Z,97693.72
2023-02-01T17:43:01.440Z,97710.16
2023-02-01T17:46:13.656Z,97702.00
2023-02-01T17:49:16.806Z,97696.53
2023-02-01T17:52:22.464Z,97684.16
2023-02-01T17:55:27.315Z,97687.59
2023-02-01T17:58:33.871Z,97686.97
2023-02-01T18:01:36.948Z,97690.06
2023-02-01T18:04:39.719Z,97696.94
2023-02-01T18:07:42.620Z,97690.44
2023-02-01T18:10:45.558Z,97680.72
2023-02-01T18:13:54.247Z,97683.56
2023-02-01T18:16:57.844Z,97684.78
2023-02-01T18:20:01.323Z,97670.59
2023-02-01T18:23:07.724Z,97689.25
2023-02-01T18:26:15.205Z,97666.94
2023-02-01T18:29:18.778Z,97683.97
2023-02-01T18:32:22.567Z,97674.44
2023-02-01T18:35:29.548Z,97659.44
2023-02-01T18:38:34.482Z,97668.56
2023-02-01T18:41:37.779Z,97652.72
2023-02-01T18:44:41.119Z,97666.94
2023-02-01T18:47:44.766Z,97631.25
2023-02-01T18:50:48.432Z,97662.88
2023-02-01T18:53:52.536Z,97649.28
2023-02-01T18:56:56.994Z,97665.31
2023-02-01T19:00:00.196Z,97674.66
2023-02-01T19:03:03.462Z,97650.13
2023-02-01T19:06:07.470Z,97657.59
2023-02-01T19:09:10.602Z,97672.63
2023-02-01T19:12:13.744Z,97669.56
2023-02-01T19:15:18.999Z,97665.47
2023-02-01T19:18:22.209Z,97668.91
2023-02-01T19:21:31.339Z,97667.09
2023-02-01T19:24:34.980Z,97672.56
2023-02-01T19:27:38.372Z,97671.31
2023-02-01T19:30:41.611Z,97660.78
2023-02-01T19:33:44.786Z,97626.22
2023-02-01T19:36:48.941Z,97640.47
2023-02-01T19:39:52.641Z,97634.19
2023-02-01T19:42:59.756Z,97629.94
2023-02-01T19:46:03.383Z,97618.97
2023-02-01T19:49:08.552Z,97638.66
2023-02-01T19:52:11.596Z,97639.28
2023-02-01T19:55:15.174Z,97631.00
2023-02-01T19:58:18.517Z,97639.06
2023-02-01T20:01:20.699Z,97629.59
2023-02-01T20:04:24.391Z,97635.06
2023-02-01T20:07:27.084Z,97644.00
2023-02-01T20:10:31.862Z,97639.34
2023-02-01T20:13:36.470Z,97641.56
2023-02-01T20:16:40.936Z,97646.03
2023-02-01T20:19:45.553Z,97632.66
2023-02-01T20:22:48.111Z,97655.16
2023-02-01T20:25:51.784Z,97629.81
2023-02-01T20:28:56.715Z,97650.72
2023-02-01T20:32:00.552Z,97668.16
2023-02-01T20:35:04.240Z,97616.63
2023-02-01T20:38:08.512Z,97616.25
2023-02-01T20:41:11.827Z,97631.03
2023-02-01T20:44:14.846Z,97602.22
2023-02-01T20:47:17.958Z,97610.34
2023-02-01T20:50:21.882Z,97606.06
2023-02-01T20:53:26.814Z,97594.72
2023-02-01T20:56:30.014Z,97603.22
2023-02-01T20:59:33.898Z,97598.56
2023-02-01T21:02:37.676Z,97596.72
2023-02-01T21:05:41.726Z,97591.88
2023-02-01T21:08:44.503Z,97566.69
2023-02-01T21:11:46.862Z,97598.34
2023-02-01T21:14:50.236Z,97584.91
2023-02-01T21:17:53.159Z,97597.13
2023-02-01T21:20:58.749Z,97596.09
2023-02-01T21:24:02.597Z,97572.56
2023-02-01T21:27:04.870Z,97567.44
2023-02-01T21:30:08.395Z,97579.22
2023-02-01T21:33:10.651Z,97580.25
2023-02-01T21:36:23.369Z,97592.63
2023-02-01T21:39:27.710Z,97574.97
2023-02-01T21:42:31.250Z,97568.66
2023-02-01T21:45:33.671Z,97598.72
2023-02-01T21:49:04.050Z,97587.75
2023-02-01T21:51:59.012Z,97578.84
2023-02-01T21:55:01.378Z,97553.13
2023-02-01T21:58:03.555Z,97554.53
2023-02-01T22:01:06.561Z,97582.13
2023-02-01T22:04:10.438Z,97587.00
2023-02-01T22:07:12.813Z,97556.41
2023-02-01T22:10:14.794Z,97587.81
2023-02-01T22:13:16.849Z,97547.84
2023-02-01T22:16:21.652Z,97537.13
2023-02-01T22:19:23.764Z,97551.09
2023-02-01T22:22:25.905Z,97577.69
2023-02-01T22:25:28.956Z,97547.03
2023-02-01T22:28:33.769Z,97557.00
2023-02-01T22:31:36.574Z,97588.84
2023-02-01T22:34:39.374Z,97548.25
2023-02-01T22:37:41.647Z,97532.06
2023-02-01T22:40:44.402Z,97545.03
2023-02-01T22:43:47.612Z,97527.19
2023-02-01T22:46:50.248Z,97532.66
2023-02-01T22:49:52.390Z,97505.09
2023-02-01T22:52:54.568Z,97563.69
2023-02-01T22:56:08.062Z,97543.19
2023-02-01T22:59:12.810Z,97547.06
2023-02-01T23:02:15.046Z,97564.09
2023-02-01T23:05:17.260Z,97559.19
2023-02-01T23:08:19.315Z,97539.34
2023-02-01T23:11:22.639Z,97532.06
2023-02-01T23:14:24.842Z,97539.56
2023-02-01T23:17:26.908Z,97527.38
2023-02-01T23:20:29.013Z,97554.16
2023-02-01T23:23:30.944Z,97530.44
2023-02-01T23:26:34.039Z,97521.53
2023-02-01T23:29:36.286Z,97528.00
2023-02-01T23:32:38.453Z,97518.28
2023-02-01T23:35:40.650Z,97520.31
2023-02-01T23:38:46.050Z,97531.88
2023-02-01T23:41:48.067Z,97532.69
2023-02-01T23:44:50.018Z,97533.50
2023-02-01T23:47:52.025Z,97514.22
2023-02-01T23:50:54.595Z,97524.38
2023-02-01T23:53:57.428Z,97538.97
2023-02-01T23:56:59.656Z,97527.81
